createdAt,value
2023-11-25T00:02:54.268Z,10.65
2023-11-25T00:12:58.490Z,8.90
2023-11-25T00:33:05.618Z,7.82
2023-11-25T00:43:08.570Z,11.27
2023-11-25T00:53:13.334Z,7.80
2023-11-25T01:03:17.189Z,6.43
2023-11-25T01:13:24.251Z,4.10
2023-11-25T01:23:27.455Z,7.50
2023-11-25T01:33:31.658Z,5.68
2023-11-25T01:43:34.599Z,5.60
2023-11-25T01:53:39.790Z,7.45
2023-11-25T02:03:42.895Z,6.25
2023-11-25T02:13:47.263Z,12.25
2023-11-25T02:23:51.577Z,10.77
2023-11-25T02:33:55.052Z,8.88
2023-11-25T02:44:00.113Z,9.85
2023-11-25T02:54:03.085Z,11.50
2023-11-25T03:04:08.960Z,7.80
2023-11-25T03:14:11.887Z,7.35
2023-11-25T03:24:17.434Z,11.32
2023-11-25T03:34:22.639Z,11.27
2023-11-25T03:44:26.857Z,12.00
2023-11-25T03:54:29.944Z,13.13
2023-11-25T04:04:34.277Z,14.80
2023-11-25T04:14:37.235Z,16.92
2023-11-25T04:24:41.489Z,20.80
2023-11-25T04:34:45.045Z,15.25
2023-11-25T04:44:49.216Z,18.40
2023-11-25T04:54:52.195Z,13.63
2023-11-25T05:04:57.060Z,12.90
2023-11-25T05:14:59.992Z,13.45
2023-11-25T05:25:04.720Z,14.55
2023-11-25T05:35:08.214Z,14.35
2023-11-25T05:45:12.849Z,12.35
2023-11-25T05:55:16.168Z,14.93
2023-11-25T06:05:20.573Z,18.35
2023-11-25T06:15:24.079Z,16.20
2023-11-25T06:25:28.535Z,11.60
2023-11-25T06:35:31.323Z,15.40
2023-11-25T06:45:35.869Z,14.55
2023-11-25T06:55:42.446Z,10.80
2023-11-25T07:05:46.670Z,12.57
2023-11-25T07:15:49.594Z,13.30
2023-11-25T07:25:56.523Z,9.90
2023-11-25T07:35:59.472Z,11.55
2023-11-25T07:46:08.949Z,11.98
2023-11-25T07:56:12.242Z,17.75
2023-11-25T08:06:17.608Z,13.85
2023-11-25T08:16:20.625Z,11.15
2023-11-25T08:26:26.634Z,6.25
2023-11-25T08:36:29.482Z,9.25
2023-11-25T08:46:36.831Z,12.40
2023-11-25T08:56:41.984Z,9.65
2023-11-25T09:06:47.598Z,6.53
2023-11-25T09:16:52.716Z,5.35
2023-11-25T09:27:00.692Z,8.95
2023-11-25T09:37:05.965Z,8.75
2023-11-25T09:47:13.622Z,15.10
2023-11-25T09:57:20.985Z,6.28
2023-11-25T10:07:25.609Z,7.95
2023-11-25T10:17:31.056Z,7.32
2023-11-25T10:27:38.791Z,11.63
2023-11-25T10:37:43.030Z,7.10
2023-11-25T10:47:48.335Z,4.25
2023-11-25T10:57:52.998Z,5.90
2023-11-25T11:08:03.691Z,6.20
2023-11-25T11:18:23.210Z,5.65
2023-11-25T11:28:40.959Z,8.55
2023-11-25T11:38:46.192Z,8.38
2023-11-25T11:48:50.388Z,8.13
2023-11-25T11:58:59.835Z,13.15
2023-11-25T12:09:07.544Z,8.68
2023-11-25T12:19:11.784Z,8.35
2023-11-25T12:29:19.270Z,8.02
2023-11-25T12:39:23.139Z,9.23
2023-11-25T12:49:27.410Z,8.02
2023-11-25T12:59:31.044Z,6.32
2023-11-25T13:09:38.965Z,8.38
2023-11-25T13:19:42.456Z,8.80
2023-11-25T13:29:46.721Z,8.63
2023-11-25T13:39:49.573Z,8.45
2023-11-25T13:49:54.225Z,7.18
2023-11-25T13:59:57.065Z,7.70
2023-11-25T14:10:01.186Z,11.05
2023-11-25T14:20:15.884Z,7.28
2023-11-25T14:30:23.780Z,11.60
2023-11-25T14:40:26.724Z,8.52
2023-11-25T14:50:31.387Z,9.95
2023-11-25T15:00:34.392Z,15.90
2023-11-25T15:11:31.487Z,13.50
2023-11-25T15:21:34.346Z,7.65
2023-11-25T15:31:38.681Z,10.07
2023-11-25T15:41:41.820Z,11.15
2023-11-25T15:51:46.291Z,15.38
2023-11-25T16:01:49.910Z,8.75
2023-11-25T16:21:57.659Z,7.80
2023-11-25T16:32:03.505Z,6.57
2023-11-25T16:42:07.479Z,7.38
2023-11-25T16:52:11.668Z,4.25
2023-11-25T17:02:15.195Z,6.88
2023-11-25T17:12:19.452Z,7.85
2023-11-25T17:22:22.277Z,11.40
2023-11-25T17:32:26.516Z,10.88
2023-11-25T17:42:29.276Z,9.13
2023-11-25T17:52:34.040Z,10.40
2023-11-25T18:02:38.084Z,9.60
2023-11-25T18:12:43.820Z,8.60
2023-11-25T18:22:46.623Z,13.38
2023-11-25T18:32:51.054Z,13.02
2023-11-25T18:42:54.020Z,12.07
2023-11-25T18:52:58.288Z,4.88
2023-11-25T19:03:03.151Z,4.65
2023-11-25T19:13:07.427Z,6.75
2023-11-25T19:23:11.001Z,7.30
2023-11-25T19:33:15.301Z,5.57
2023-11-25T19:43:18.182Z,7.10
2023-11-25T19:53:22.722Z,5.72
2023-11-25T20:03:45.717Z,8.10
2023-11-25T20:13:50.561Z,8.50
2023-11-25T20:23:53.767Z,8.52
2023-11-25T20:33:58.296Z,6.38
2023-11-25T20:44:01.521Z,11.10
2023-11-25T20:54:07.211Z,8.77
2023-11-25T21:04:10.813Z,11.88
2023-11-25T21:14:15.406Z,6.47
2023-11-25T21:24:18.600Z,7.20
2023-11-25T21:34:23.046Z,8.18
2023-11-25T21:44:25.939Z,7.70
2023-11-25T21:54:30.071Z,10.02
2023-11-25T22:04:32.851Z,8.10
2023-11-25T22:14:37.040Z,9.25
2023-11-25T22:24:40.665Z,16.17
2023-11-25T22:34:45.467Z,20.48
2023-11-25T22:44:48.472Z,17.48
2023-11-25T22:54:52.760Z,12.90
2023-11-25T23:04:55.742Z,20.10
2023-11-25T23:15:00.022Z,16.95
2023-11-25T23:25:03.513Z,19.23
2023-11-25T23:45:11.657Z,13.38
2023-11-25T23:55:15.852Z,13.00
